Thunderstorms From: 15-12-2017 06:00 Until: 16-12-2017 06:00 warning for: Thunderstorms Level: Yellow info button

Although rather usual in this region, locally or potentially dangerous phenomena are expected. (such as local winds, summer thunderstorms, rising streams or high waves) Be aware and pay attention to the latest weather updates, especially if you carry out activities exposed to weather or close to a stream or shoreline. 


Meteo18 Weather Cam more information Meteo18 Weather Cam


warning for Thunderstorms more information blitzortung!


Rain radar more information rain snow radar


Visit our other weather sites:

Template documentation
and downloads

And another site



Weather Underground History page Text

Daily Summary for May 12, 2017 Units:  Metric    English   Both
« Previous Day
Next Day »
Daily Weekly Monthly Yearly Custom
  High: Low: Average:
Temperature: 20.7 °C 7.6 °C 13.5 °C
Dew Point: 15.2 °C 7.2 °C 11.7 °C
Humidity: 97 % 60 % 90 %
Wind Speed: 22.5 km/h 0.0 km/h 2.2 km/h
Wind Gust: 22.5 km/h - -
Wind:- - SSE
Pressure: 1009.0 hPa 999.9 hPa -
Precipitation: 8.4 mm    
Historical Graphs
 
 
Tabular Data for May 12, 2017
Time Temperature Dew Point Pressure Wind Wind Speed Wind Gust Humidity Rainfall Rate (Hourly)
00:02 12.4 °C 11.8 °C 999.9 hPa SSW 1.6 km/h 4.8 km/h 96 % 0.8 mm
00:12 12.3 °C 11.7 °C 999.9 hPa Calm   4.8 km/h 96 % 0.8 mm
00:17 12.2 °C 11.6 °C 1000.2 hPa Calm   3.2 km/h 96 % 0.8 mm
00:22 12.1 °C 11.5 °C 1000.2 hPa Calm   3.2 km/h 96 % 0.8 mm
00:27 12.1 °C 11.5 °C 1000.2 hPa Calm     96 % 0.8 mm
00:32 12.1 °C 11.5 °C 1000.2 hPa Calm     96 % 0.8 mm
00:42 11.9 °C 11.3 °C 1000.6 hPa Calm     96 % 0.0 mm
00:47 11.7 °C 11.1 °C 1000.6 hPa Calm     96 % 0.0 mm
00:52 11.3 °C 10.5 °C 1000.6 hPa Calm   3.2 km/h 95 % 0.0 mm
00:57 11.0 °C 10.2 °C 1000.6 hPa Calm   3.2 km/h 95 % 0.0 mm
01:02 10.9 °C 10.3 °C 1000.6 hPa Calm   3.2 km/h 96 % 0.0 mm
01:12 10.9 °C 10.3 °C 1000.6 hPa Calm   1.6 km/h 96 % 0.0 mm
01:17 10.9 °C 10.3 °C 1000.6 hPa Calm     96 % 0.0 mm
01:22 10.8 °C 10.2 °C 1000.6 hPa Calm     96 % 0.0 mm
01:27 10.7 °C 10.1 °C 1000.6 hPa Calm     96 % 0.0 mm
01:32 10.7 °C 10.1 °C 1000.6 hPa Calm     96 % 0.0 mm
01:37 10.8 °C 10.3 °C 1000.6 hPa Calm   1.6 km/h 97 % 0.0 mm
01:42 10.9 °C 10.4 °C 1000.9 hPa Calm   1.6 km/h 97 % 0.0 mm
01:47 10.8 °C 10.2 °C 1000.9 hPa Calm   1.6 km/h 96 % 0.0 mm
01:52 10.8 °C 10.3 °C 1000.9 hPa Calm   1.6 km/h 97 % 0.0 mm
01:57 10.8 °C 10.3 °C 1000.9 hPa Calm     97 % 0.0 mm
02:02 10.8 °C 10.3 °C 1000.9 hPa Calm     97 % 0.0 mm
02:12 10.7 °C 10.1 °C 1001.2 hPa Calm     96 % 0.0 mm
02:17 10.4 °C 9.8 °C 1000.9 hPa ESE 1.6 km/h   96 % 0.0 mm
02:22 10.1 °C 9.5 °C 1000.9 hPa Calm   3.2 km/h 96 % 0.0 mm
02:27 9.8 °C 9.2 °C 1000.9 hPa Calm   3.2 km/h 96 % 0.0 mm
02:32 9.6 °C 9.0 °C 1000.9 hPa Calm   3.2 km/h 96 % 0.0 mm
02:37 9.4 °C 8.8 °C 1001.2 hPa Calm     96 % 0.0 mm
02:42 9.6 °C 9.1 °C 1000.9 hPa Calm     97 % 0.0 mm
02:47 9.4 °C 8.8 °C 1001.2 hPa Calm     96 % 0.0 mm
02:52 9.2 °C 8.6 °C 1001.2 hPa Calm     96 % 0.0 mm
02:57 9.2 °C 8.6 °C 1001.2 hPa Calm     96 % 0.0 mm
03:02 9.1 °C 8.6 °C 1001.2 hPa Calm     97 % 0.0 mm
03:12 9.1 °C 8.6 °C 1001.2 hPa Calm     97 % 0.0 mm
03:17 9.1 °C 8.6 °C 1001.2 hPa Calm     97 % 0.3 mm
03:22 9.1 °C 8.6 °C 1001.2 hPa Calm     97 % 0.3 mm
03:27 9.2 °C 8.7 °C 1001.2 hPa Calm     97 % 0.3 mm
03:32 9.3 °C 8.8 °C 1001.2 hPa Calm     97 % 0.3 mm
03:37 9.1 °C 8.6 °C 1001.2 hPa Calm     97 % 0.3 mm
03:42 9.1 °C 8.6 °C 1001.2 hPa Calm     97 % 0.3 mm
03:47 9.1 °C 8.6 °C 1001.2 hPa Calm     97 % 0.3 mm
03:52 9.0 °C 8.5 °C 1001.6 hPa Calm     97 % 0.3 mm
03:57 9.1 °C 8.6 °C 1001.6 hPa Calm     97 % 0.3 mm
04:02 9.0 °C 8.5 °C 1001.6 hPa Calm     97 % 0.3 mm
04:07 8.9 °C 8.4 °C 1001.6 hPa Calm     97 % 0.3 mm
04:17 8.7 °C 8.3 °C 1001.6 hPa Calm     97 % 0.0 mm
04:22 8.6 °C 8.2 °C 1001.6 hPa Calm     97 % 0.0 mm
04:32 8.6 °C 8.2 °C 1001.6 hPa Calm     97 % 0.0 mm
04:42 8.6 °C 8.2 °C 1001.6 hPa Calm     97 % 0.0 mm
04:47 8.6 °C 8.2 °C 1001.6 hPa Calm     97 % 0.0 mm
04:52 8.4 °C 8.0 °C 1001.6 hPa Calm     97 % 0.0 mm
04:57 8.6 °C 8.2 °C 1001.6 hPa Calm     97 % 0.0 mm
05:02 8.5 °C 8.1 °C 1001.6 hPa Calm     97 % 0.0 mm
05:12 8.2 °C 7.8 °C 1001.9 hPa Calm     97 % 0.0 mm
05:17 8.1 °C 7.7 °C 1001.9 hPa Calm     97 % 0.0 mm
05:22 8.2 °C 7.8 °C 1001.9 hPa Calm     97 % 0.0 mm
05:27 8.3 °C 7.9 °C 1001.9 hPa Calm     97 % 0.0 mm
05:32 8.1 °C 7.7 °C 1001.9 hPa Calm     97 % 0.0 mm
05:37 8.0 °C 7.6 °C 1001.9 hPa Calm     97 % 0.0 mm
05:42 7.9 °C 7.5 °C 1001.9 hPa Calm     97 % 0.0 mm
05:47 7.9 °C 7.5 °C 1001.9 hPa Calm     97 % 0.0 mm
05:52 7.7 °C 7.3 °C 1001.9 hPa Calm     97 % 0.0 mm
05:57 7.6 °C 7.2 °C 1001.9 hPa Calm     97 % 0.0 mm
06:02 7.8 °C 7.4 °C 1001.9 hPa Calm     97 % 0.0 mm
06:07 7.9 °C 7.5 °C 1001.9 hPa Calm     97 % 0.0 mm
06:12 7.8 °C 7.4 °C 1001.9 hPa Calm     97 % 0.0 mm
06:17 7.6 °C 7.2 °C 1001.9 hPa Calm     97 % 0.0 mm
06:22 7.6 °C 7.2 °C 1001.9 hPa Calm     97 % 0.0 mm
06:32 8.0 °C 7.6 °C 1001.9 hPa Calm     97 % 0.0 mm
06:42 7.8 °C 7.4 °C 1001.9 hPa Calm     97 % 0.0 mm
06:52 7.9 °C 7.5 °C 1002.3 hPa Calm     97 % 0.0 mm
06:57 8.5 °C 8.1 °C 1002.3 hPa Calm     97 % 0.0 mm
07:02 8.9 °C 8.4 °C 1002.3 hPa Calm     97 % 0.0 mm
07:07 9.3 °C 8.8 °C 1002.3 hPa Calm     97 % 0.0 mm
07:12 9.6 °C 9.1 °C 1002.3 hPa Calm     97 % 0.0 mm
07:17 9.8 °C 9.3 °C 1002.3 hPa Calm     97 % 0.0 mm
07:22 9.2 °C 8.4 °C 1002.3 hPa Calm     95 % 0.0 mm
07:27 9.1 °C 8.5 °C 1002.6 hPa Calm     96 % 0.0 mm
07:32 9.4 °C 8.8 °C 1002.6 hPa Calm     96 % 0.0 mm
07:37 9.6 °C 9.0 °C 1002.6 hPa Calm     96 % 0.0 mm
07:42 9.9 °C 9.4 °C 1002.6 hPa Calm     97 % 0.0 mm
07:52 10.8 °C 10.3 °C 1002.6 hPa Calm     97 % 0.0 mm
08:02 11.4 °C 10.8 °C 1002.9 hPa Calm     96 % 0.0 mm
08:12 11.4 °C 10.8 °C 1002.6 hPa Calm     96 % 0.0 mm
08:17 11.6 °C 11.0 °C 1002.9 hPa Calm     96 % 0.0 mm
08:22 11.8 °C 11.2 °C 1002.6 hPa Calm     96 % 0.0 mm
08:27 11.7 °C 10.9 °C 1002.6 hPa Calm     95 % 0.0 mm
08:32 12.0 °C 11.4 °C 1002.9 hPa South 3.2 km/h   96 % 0.0 mm
08:37 12.3 °C 11.7 °C 1002.9 hPa SSW 1.6 km/h 4.8 km/h 96 % 0.0 mm
08:42 12.4 °C 11.6 °C 1002.9 hPa SW 1.6 km/h 4.8 km/h 95 % 0.0 mm
08:47 12.5 °C 11.7 °C 1002.9 hPa SSW 3.2 km/h 6.4 km/h 95 % 0.0 mm
08:57 12.9 °C 12.1 °C 1002.9 hPa SSE 1.6 km/h 6.4 km/h 95 % 0.0 mm
09:02 13.2 °C 12.4 °C 1002.9 hPa SSE 3.2 km/h 6.4 km/h 95 % 0.0 mm
09:07 13.3 °C 12.4 °C 1002.9 hPa SSW 1.6 km/h 6.4 km/h 94 % 0.0 mm
09:12 13.5 °C 12.6 °C 1002.9 hPa ESE 1.6 km/h 6.4 km/h 94 % 0.0 mm
09:17 13.5 °C 12.4 °C 1002.9 hPa Calm   6.4 km/h 93 % 0.0 mm
09:22 13.6 °C 12.5 °C 1002.9 hPa South 1.6 km/h 6.4 km/h 93 % 0.0 mm
09:32 13.7 °C 12.6 °C 1002.9 hPa SW 1.6 km/h 4.8 km/h 93 % 0.0 mm
09:37 13.7 °C 12.4 °C 1002.9 hPa SE 3.2 km/h 8.0 km/h 92 % 0.0 mm
09:42 13.7 °C 12.4 °C 1003.3 hPa SSW 4.8 km/h 8.0 km/h 92 % 0.0 mm
09:47 13.7 °C 12.4 °C 1003.3 hPa Calm   8.0 km/h 92 % 0.0 mm
09:52 13.8 °C 12.5 °C 1003.3 hPa Calm   8.0 km/h 92 % 0.0 mm
09:57 13.9 °C 12.6 °C 1003.3 hPa WSW 1.6 km/h 9.7 km/h 92 % 0.0 mm
10:02 14.0 °C 12.6 °C 1003.3 hPa SSE 4.8 km/h 9.7 km/h 91 % 0.0 mm
10:12 14.3 °C 12.7 °C 1003.3 hPa SSW 3.2 km/h 11.3 km/h 90 % 0.0 mm
10:17 14.4 °C 12.8 °C 1003.6 hPa SSE 3.2 km/h 9.7 km/h 90 % 0.0 mm
10:22 14.5 °C 12.7 °C 1003.6 hPa SSW 4.8 km/h 9.7 km/h 89 % 0.0 mm
10:27 14.6 °C 12.8 °C 1003.6 hPa SSE 6.4 km/h 9.7 km/h 89 % 0.0 mm
10:32 14.4 °C 12.6 °C 1003.9 hPa SE 3.2 km/h 9.7 km/h 89 % 0.0 mm
10:37 14.2 °C 12.6 °C 1003.9 hPa SSE 4.8 km/h 8.0 km/h 90 % 0.5 mm
10:42 14.1 °C 12.7 °C 1003.9 hPa Calm   8.0 km/h 91 % 0.5 mm
10:47 13.9 °C 12.5 °C 1003.9 hPa SE 1.6 km/h 8.0 km/h 91 % 0.8 mm
10:52 13.9 °C 12.6 °C 1003.6 hPa SE 3.2 km/h 8.0 km/h 92 % 0.8 mm
10:57 13.9 °C 12.6 °C 1003.6 hPa Calm   8.0 km/h 92 % 0.8 mm
11:02 14.2 °C 12.9 °C 1003.6 hPa Calm   8.0 km/h 92 % 0.8 mm
11:07 14.4 °C 12.9 °C 1003.6 hPa ESE 3.2 km/h 8.0 km/h 91 % 0.8 mm
11:12 14.8 °C 13.3 °C 1003.6 hPa SE 6.4 km/h 8.0 km/h 91 % 0.8 mm
11:22 15.4 °C 13.4 °C 1003.6 hPa Calm   9.7 km/h 88 % 0.8 mm
11:32 15.9 °C 13.7 °C 1003.9 hPa SW 3.2 km/h 9.7 km/h 87 % 0.5 mm
11:42 16.2 °C 13.7 °C 1003.9 hPa South 3.2 km/h 12.9 km/h 85 % 0.0 mm
11:47 16.4 °C 13.5 °C 1003.9 hPa SSW 4.8 km/h 12.9 km/h 83 % 0.0 mm
11:52 16.6 °C 13.7 °C 1003.9 hPa South 1.6 km/h 14.5 km/h 83 % 0.0 mm
11:57 16.9 °C 14.2 °C 1003.9 hPa Calm   14.5 km/h 84 % 0.0 mm
12:02 17.3 °C 14.2 °C 1003.9 hPa South 4.8 km/h 14.5 km/h 82 % 0.0 mm
12:12 17.5 °C 14.2 °C 1003.9 hPa SSE 3.2 km/h 12.9 km/h 81 % 0.0 mm
12:17 17.9 °C 14.8 °C 1003.9 hPa ESE 4.8 km/h 12.9 km/h 82 % 0.0 mm
12:22 17.6 °C 14.5 °C 1003.9 hPa SSE 3.2 km/h 12.9 km/h 82 % 0.0 mm
12:32 17.8 °C 14.3 °C 1003.9 hPa West 1.6 km/h 11.3 km/h 80 % 0.0 mm
12:42 18.1 °C 14.2 °C 1003.6 hPa SE 1.6 km/h 12.9 km/h 78 % 0.0 mm
12:47 18.1 °C 14.2 °C 1003.6 hPa SSE 4.8 km/h 11.3 km/h 78 % 0.0 mm
12:52 18.2 °C 13.9 °C 1003.6 hPa SSW 3.2 km/h 12.9 km/h 76 % 0.0 mm
13:02 18.1 °C 13.6 °C 1003.6 hPa South 4.8 km/h 12.9 km/h 75 % 0.0 mm
13:07 18.0 °C 13.3 °C 1003.9 hPa South 6.4 km/h 14.5 km/h 74 % 0.0 mm
13:12 18.2 °C 14.1 °C 1003.6 hPa South 4.8 km/h 14.5 km/h 77 % 0.0 mm
13:22 19.0 °C 15.1 °C 1003.6 hPa SE 4.8 km/h 12.9 km/h 78 % 0.0 mm
13:27 19.5 °C 14.7 °C 1003.6 hPa SW 4.8 km/h 12.9 km/h 74 % 0.0 mm
13:32 19.6 °C 14.6 °C 1003.6 hPa SE 4.8 km/h 9.7 km/h 73 % 0.0 mm
13:37 19.8 °C 15.2 °C 1003.3 hPa NE 1.6 km/h 19.3 km/h 75 % 0.0 mm
13:42 19.8 °C 14.8 °C 1003.3 hPa East 1.6 km/h 19.3 km/h 73 % 0.0 mm
13:47 19.7 °C 14.5 °C 1003.3 hPa ESE 1.6 km/h 19.3 km/h 72 % 0.0 mm
13:52 19.7 °C 14.1 °C 1003.3 hPa SSE 3.2 km/h 9.7 km/h 70 % 0.0 mm
13:57 20.1 °C 14.0 °C 1003.3 hPa SSW 3.2 km/h 9.7 km/h 68 % 0.0 mm
14:02 20.3 °C 14.6 °C 1003.3 hPa SSW 8.0 km/h 9.7 km/h 70 % 0.0 mm
14:07 19.8 °C 13.3 °C 1003.3 hPa SW 6.4 km/h 11.3 km/h 66 % 0.0 mm
14:12 19.7 °C 13.4 °C 1003.3 hPa Calm   11.3 km/h 67 % 0.0 mm
14:17 19.8 °C 13.7 °C 1002.9 hPa SW 1.6 km/h 11.3 km/h 68 % 0.0 mm
14:22 19.8 °C 13.9 °C 1003.3 hPa South 3.2 km/h 9.7 km/h 69 % 0.0 mm
14:27 19.8 °C 13.0 °C 1002.9 hPa SW 14.5 km/h 17.7 km/h 65 % 0.0 mm
14:32 19.6 °C 13.3 °C 1002.9 hPa SSW 14.5 km/h 20.9 km/h 67 % 0.0 mm
14:37 19.2 °C 12.9 °C 1002.9 hPa WSW 6.4 km/h 22.5 km/h 67 % 0.0 mm
14:42 18.9 °C 12.9 °C 1002.9 hPa SW 8.0 km/h 22.5 km/h 68 % 0.3 mm
14:52 19.5 °C 13.0 °C 1002.9 hPa SSW 12.9 km/h 22.5 km/h 66 % 0.3 mm
15:02 19.7 °C 12.9 °C 1002.9 hPa SW 14.5 km/h 22.5 km/h 65 % 0.3 mm
15:12 20.1 °C 12.1 °C 1002.9 hPa WSW 11.3 km/h 20.9 km/h 60 % 0.3 mm
15:17 20.2 °C 13.6 °C 1002.9 hPa WSW 22.5 km/h 22.5 km/h 66 % 0.3 mm
15:22 20.1 °C 12.6 °C 1002.9 hPa WSW 17.7 km/h 22.5 km/h 62 % 0.3 mm
15:32 20.7 °C 12.9 °C 1002.9 hPa WSW 16.1 km/h 22.5 km/h 61 % 0.3 mm
15:37 20.5 °C 13.0 °C 1002.9 hPa South 4.8 km/h 22.5 km/h 62 % 0.0 mm
15:42 20.4 °C 12.9 °C 1003.3 hPa West 8.0 km/h 19.3 km/h 62 % 0.0 mm
15:47 19.4 °C 12.9 °C 1003.3 hPa WNW 4.8 km/h 19.3 km/h 66 % 0.0 mm
15:52 18.1 °C 13.0 °C 1003.3 hPa WNW 3.2 km/h 20.9 km/h 72 % 0.5 mm
16:02 17.2 °C 13.3 °C 1003.3 hPa Calm   14.5 km/h 78 % 0.5 mm
16:12 16.9 °C 13.6 °C 1003.3 hPa ENE 8.0 km/h 8.0 km/h 81 % 0.5 mm
16:17 17.0 °C 14.1 °C 1003.3 hPa NE 3.2 km/h 8.0 km/h 83 % 0.5 mm
16:22 17.2 °C 13.7 °C 1003.3 hPa NNE 4.8 km/h 11.3 km/h 80 % 0.5 mm
16:32 17.7 °C 14.4 °C 1003.3 hPa NNE 11.3 km/h 16.1 km/h 81 % 0.5 mm
16:37 17.8 °C 14.1 °C 1003.6 hPa NNE 4.8 km/h 16.1 km/h 79 % 0.5 mm
16:42 17.8 °C 14.3 °C 1003.6 hPa NE 8.0 km/h 16.1 km/h 80 % 0.5 mm
16:47 17.6 °C 14.1 °C 1003.6 hPa NE 12.9 km/h 16.1 km/h 80 % 0.5 mm
16:52 17.3 °C 13.8 °C 1003.3 hPa NE 9.7 km/h 17.7 km/h 80 % 0.3 mm
16:57 17.2 °C 14.1 °C 1003.6 hPa ENE 6.4 km/h 17.7 km/h 82 % 0.3 mm
17:02 17.1 °C 14.0 °C 1003.6 hPa NE 8.0 km/h 17.7 km/h 82 % 0.3 mm
17:07 16.9 °C 14.0 °C 1003.6 hPa ENE 6.4 km/h 16.1 km/h 83 % 0.3 mm
17:12 16.8 °C 13.9 °C 1003.6 hPa NE 4.8 km/h 12.9 km/h 83 % 0.3 mm
17:17 16.7 °C 14.0 °C 1003.6 hPa NNE 6.4 km/h 11.3 km/h 84 % 0.3 mm
17:22 16.5 °C 13.8 °C 1003.9 hPa NNE 4.8 km/h 11.3 km/h 84 % 0.3 mm
17:32 16.3 °C 14.0 °C 1003.9 hPa Calm   11.3 km/h 86 % 0.5 mm
17:42 16.0 °C 13.1 °C 1003.9 hPa SE 12.9 km/h 12.9 km/h 83 % 0.5 mm
17:52 17.1 °C 14.2 °C 1004.3 hPa Calm   19.3 km/h 83 % 0.8 mm
18:02 17.4 °C 14.7 °C 1004.3 hPa Calm   6.4 km/h 84 % 0.8 mm
18:12 17.3 °C 14.6 °C 1004.3 hPa East 1.6 km/h 6.4 km/h 84 % 0.8 mm
18:17 17.2 °C 14.5 °C 1004.3 hPa ENE 1.6 km/h 6.4 km/h 84 % 0.8 mm
18:22 17.0 °C 14.5 °C 1004.6 hPa East 1.6 km/h 6.4 km/h 85 % 0.8 mm
18:32 16.7 °C 14.7 °C 1004.6 hPa NE 4.8 km/h 12.9 km/h 88 % 0.8 mm
18:37 16.4 °C 14.4 °C 1004.6 hPa ESE 1.6 km/h 12.9 km/h 88 % 0.5 mm
18:42 16.2 °C 14.0 °C 1004.6 hPa East 4.8 km/h 12.9 km/h 87 % 0.0 mm
18:47 16.0 °C 14.0 °C 1004.6 hPa ESE 3.2 km/h 12.9 km/h 88 % 0.0 mm
18:57 15.8 °C 14.0 °C 1004.3 hPa SE 3.2 km/h 12.9 km/h 89 % 0.0 mm
19:02 15.7 °C 14.1 °C 1004.6 hPa SE 6.4 km/h 12.9 km/h 90 % 0.0 mm
19:12 15.5 °C 13.7 °C 1005.0 hPa West 3.2 km/h 8.0 km/h 89 % 0.0 mm
19:17 15.3 °C 13.3 °C 1005.0 hPa SE 4.8 km/h 8.0 km/h 88 % 2.3 mm
19:22 15.2 °C 13.4 °C 1005.0 hPa East 1.6 km/h 8.0 km/h 89 % 4.8 mm
19:27 15.0 °C 13.4 °C 1005.3 hPa WNW 3.2 km/h 8.0 km/h 90 % 5.1 mm
19:32 14.8 °C 13.2 °C 1005.3 hPa Calm   6.4 km/h 90 % 5.3 mm
19:37 14.6 °C 13.1 °C 1005.6 hPa Calm   4.8 km/h 91 % 5.3 mm
19:42 14.5 °C 13.0 °C 1005.6 hPa Calm   4.8 km/h 91 % 5.6 mm
19:47 14.4 °C 12.9 °C 1005.6 hPa East 4.8 km/h 4.8 km/h 91 % 5.8 mm
19:52 14.4 °C 12.9 °C 1006.0 hPa ESE 1.6 km/h 6.4 km/h 91 % 5.8 mm
19:57 14.3 °C 13.0 °C 1006.0 hPa East 3.2 km/h 6.4 km/h 92 % 5.8 mm
20:02 14.3 °C 13.0 °C 1006.0 hPa East 3.2 km/h 6.4 km/h 92 % 5.8 mm
20:17 14.3 °C 13.2 °C 1006.3 hPa Calm   3.2 km/h 93 % 2.5 mm
20:27 14.2 °C 13.1 °C 1006.7 hPa East 1.6 km/h 3.2 km/h 93 % 0.5 mm
20:32 14.2 °C 13.1 °C 1006.7 hPa ENE 1.6 km/h 4.8 km/h 93 % 0.5 mm
20:37 14.2 °C 13.1 °C 1006.7 hPa Calm   4.8 km/h 93 % 0.5 mm
20:47 14.1 °C 13.0 °C 1006.7 hPa East 1.6 km/h 4.8 km/h 93 % 0.0 mm
20:52 14.1 °C 13.1 °C 1006.7 hPa Calm   4.8 km/h 94 % 0.0 mm
20:57 14.1 °C 13.1 °C 1006.7 hPa Calm   4.8 km/h 94 % 0.0 mm
21:02 14.1 °C 13.1 °C 1007.0 hPa Calm   3.2 km/h 94 % 0.0 mm
21:12 14.0 °C 13.0 °C 1007.0 hPa Calm   3.2 km/h 94 % 0.0 mm
21:17 13.9 °C 12.9 °C 1007.0 hPa Calm   3.2 km/h 94 % 0.0 mm
21:22 13.9 °C 12.9 °C 1007.0 hPa Calm   1.6 km/h 94 % 0.0 mm
21:32 13.9 °C 12.9 °C 1007.0 hPa Calm   3.2 km/h 94 % 0.0 mm
21:42 13.7 °C 12.8 °C 1007.3 hPa Calm   1.6 km/h 94 % 0.0 mm
21:52 13.6 °C 12.7 °C 1007.3 hPa Calm   1.6 km/h 94 % 0.0 mm
21:57 13.5 °C 12.7 °C 1007.3 hPa Calm     95 % 0.0 mm
22:02 13.4 °C 12.6 °C 1007.7 hPa Calm     95 % 0.0 mm
22:07 13.4 °C 12.6 °C 1007.7 hPa Calm     95 % 0.0 mm
22:12 13.3 °C 12.5 °C 1007.7 hPa Calm     95 % 0.0 mm
22:17 13.1 °C 12.2 °C 1008.0 hPa Calm     94 % 0.0 mm
22:22 12.8 °C 11.9 °C 1008.0 hPa Calm     94 % 0.0 mm
22:27 12.7 °C 11.9 °C 1008.4 hPa Calm     95 % 0.0 mm
22:32 12.5 °C 11.7 °C 1008.4 hPa Calm     95 % 0.0 mm
22:37 12.5 °C 11.7 °C 1008.4 hPa Calm     95 % 0.0 mm
22:42 12.6 °C 12.0 °C 1008.4 hPa Calm     96 % 0.0 mm
22:47 12.6 °C 11.8 °C 1008.4 hPa Calm     95 % 0.0 mm
22:52 12.3 °C 11.5 °C 1008.4 hPa Calm   1.6 km/h 95 % 0.0 mm
22:57 12.1 °C 11.3 °C 1008.4 hPa Calm   1.6 km/h 95 % 0.0 mm
23:02 12.3 °C 11.7 °C 1008.4 hPa Calm   1.6 km/h 96 % 0.0 mm
23:12 12.3 °C 11.7 °C 1008.4 hPa Calm   1.6 km/h 96 % 0.0 mm
23:22 12.6 °C 12.1 °C 1008.7 hPa Calm     97 % 0.0 mm
23:32 12.3 °C 11.7 °C 1008.7 hPa Calm     96 % 0.0 mm
23:37 12.1 °C 11.5 °C 1008.7 hPa Calm     96 % 0.0 mm
23:42 12.0 °C 11.4 °C 1009.0 hPa Calm     96 % 0.0 mm
23:47 12.0 °C 11.4 °C 1009.0 hPa Calm     96 % 0.0 mm
23:52 11.9 °C 11.3 °C 1009.0 hPa Calm     96 % 0.0 mm
23:57 11.8 °C 11.2 °C 1009.0 hPa Calm     96 % 0.0 mm
Meteo18
Compliments of Weather Underground - 4 mb

Script developed by  Jim McMurry - jmcmurry@mwt.net Adapted for the template by  Wim van der Kuil - Leuven-Template.eu

You find our weather info also at:

European Weather Network

Weather Underground

Equipment we use:

Weather-station
Davis Vue

Weather-program
Meteohub

Weather-server
Raspberry PI 2 B+

Provider
1 and 1

Davis Vue

Meteohub

Raspberry PI 2 B+

1 and 1